Latest Weather Observations for Melbourne Airport

IDV60901

Issued at 6:41 pm EDT Tuesday 20 November 2018 (issued every 10 minutes, with the page automatically refreshed every 10 minutes)

About weather observations | Map of Melbourne area stations | Latest observations for Melbourne area | Other Formats
Station Details ID: 086282 Name: MELBOURNE AIRPORT Lat: -37.67 Lon: 144.83 Height: 113.4 m
Data from the previous 72 hours. | See also: Recent months at Melbourne Airport
Date/Time
EDT
Temp
°C
App
Temp
°C
Dew
Point
°C
Rel
Hum
%
Delta-T
°C
Wind Press
QNH
hPa
Press
MSL
hPa
Rain since
9am
mm
Dir  Spd
km/h
Gust
km/h
Spd
kts
Gust
kts
20/06:30pm 19.6 18.2 16.6 83 1.8 NE 19 26 10 14 1000.7 1000.4 16.4
20/06:00pm 18.5 17.2 17.2 92 0.8 E 20 30 11 16 1001.4 1001.2 16.4
20/05:30pm 17.7 15.7 16.5 93 0.7 ESE 22 30 12 16 1002.2 1002.0 16.4
20/05:00pm 17.0 17.5 16.5 97 0.3 ENE 9 15 5 8 1002.9 1002.7 16.4
20/04:30pm 16.6 16.2 16.3 98 0.2 SW 13 19 7 10 1003.2 1003.0 16.2
20/04:29pm 16.7 16.4 16.4 98 0.2 WSW 13 19 7 10 1003.3 1003.1 16.2
20/04:21pm 16.4 13.9 16.1 98 0.2 WNW 24 48 13 26 1003.9 1003.7 16.0
20/04:19pm 16.3 13.0 16.0 98 0.2 WNW 28 52 15 28 1004.0 1003.8 15.8
20/04:16pm 16.2 11.5 15.9 98 0.2 NW 35 56 19 30 1004.8 1004.6 15.0
20/04:08pm 16.8 10.6 16.0 95 0.5 WNW 43 80 23 43 1006.2 1006.0 4.0
20/04:03pm 21.3 18.0 16.0 72 3.2 W 28 80 15 43 1005.1 1004.9 0.0
20/04:02pm 22.4 19.8 15.8 66 4.0 W 24 80 13 43 1004.4 1004.2 0.0
20/04:00pm 24.0 22.0 15.0 57 5.4 W 19 35 10 19 1002.9 1002.7 0.0
20/03:43pm 25.7 25.7 14.2 49 6.9 SSE 7 15 4 8 1001.3 1001.1 0.0
20/03:30pm 26.7 25.7 13.4 43 7.9 NE 11 19 6 10 1001.0 1000.7 0.0
20/03:00pm 26.7 22.6 11.6 39 8.7 NNE 24 35 13 19 1001.6 1001.4 0.0
20/02:30pm 25.9 20.8 11.9 41 8.0 NNE 30 41 16 22 1002.3 1002.1 0.0
20/02:00pm 25.8 20.1 11.7 41 8.1 N 33 43 18 23 1003.1 1002.9 0.0
20/01:30pm 25.9 20.7 11.6 40 8.2 N 30 46 16 25 1004.0 1003.8 0.0
20/01:00pm 25.7 19.4 11.1 40 8.3 N 35 46 19 25 1004.7 1004.5 0.0
20/12:48pm 25.8 19.2 11.5 40 8.2 N 37 56 20 30 1004.8 1004.6 0.0
20/12:30pm 25.3 18.6 11.0 40 8.1 N 37 50 20 27 1004.6 1004.4 0.0
20/12:00pm 24.9 16.7 10.4 40 8.1 N 44 65 24 35 1004.9 1004.7 0.0
20/11:51am 24.8 16.6 10.3 40 8.1 N 44 65 24 35 1005.2 1005.0 0.0
20/11:30am 24.8 17.2 10.5 40 8.0 N 41 54 22 29 1005.6 1005.4 0.0
20/11:00am 24.6 17.2 10.0 39 8.1 N 39 54 21 29 1005.8 1005.6 0.0
20/10:30am 23.6 16.4 9.3 40 7.8 N 37 52 20 28 1006.4 1006.2 0.0
20/10:00am 23.8 15.7 8.8 38 8.1 N 41 54 22 29 1006.7 1006.5 0.0
20/09:30am 23.6 15.4 8.3 37 8.2 N 41 50 22 27 1007.0 1006.8 0.0
20/09:00am 23.6 14.9 7.8 36 8.4 N 43 57 23 31 1006.9 1006.7 0.0
20/08:30am 23.9 14.4 6.9 33 8.9 N 46 70 25 38 1006.6 1006.4 0.0
20/08:00am 23.2 14.6 4.9 30 9.2 N 39 50 21 27 1007.3 1007.1 0.0
20/07:30am 23.3 13.8 4.1 28 9.5 NNW 43 59 23 32 1007.1 1006.9 0.0
20/07:00am 23.4 13.5 3.0 26 9.9 N 44 63 24 34 1006.2 1006.0 0.0
20/06:30am 23.6 14.6 2.7 25 10.1 N 39 52 21 28 1006.6 1006.4 0.0
20/06:19am 23.6 15.0 2.7 25 10.1 N 37 61 20 33 1006.6 1006.4 0.0
20/06:00am 23.2 14.7 3.0 26 9.8 N 37 50 20 27 1006.6 1006.4 0.0
20/05:41am 23.4 13.1 2.7 25 10.0 N 46 65 25 35 1006.3 1006.1 0.0
20/05:30am 23.2 13.0 3.0 26 9.8 N 46 57 25 31 1006.0 1005.8 0.0
20/05:00am 23.5 13.2 2.9 26 10.0 N 46 59 25 32 1005.8 1005.6 0.0
20/04:30am 23.7 13.8 2.9 25 10.1 N 44 59 24 32 1005.9 1005.7 0.0
20/04:15am 23.8 13.6 3.1 26 10.1 N 46 67 25 36 1005.9 1005.7 0.0
20/04:00am 24.0 13.8 3.1 25 10.2 N 46 57 25 31 1006.0 1005.8 0.0
20/03:39am 24.0 15.2 3.4 26 10.1 N 39 57 21 31 1006.4 1006.2 0.0
20/03:30am 23.7 15.3 3.9 27 9.8 N 37 52 20 28 1006.6 1006.4 0.0
20/03:18am 23.6 15.6 4.0 28 9.7 N 35 56 19 30 1006.7 1006.5 0.0
20/03:00am 23.4 15.9 4.6 29 9.4 N 33 48 18 26 1006.9 1006.7 0.0
20/02:30am 23.1 17.1 5.3 31 9.0 NNE 26 37 14 20 1007.3 1007.1 0.0
20/02:00am 22.5 17.7 5.7 33 8.5 N 20 28 11 15 1008.0 1007.8 0.0
20/01:30am 23.9 17.8 4.8 29 9.6 NNE 26 37 14 20 1008.3 1008.2 0.0
20/01:00am 23.1 17.5 5.6 32 8.9 NNE 24 35 13 19 1008.8 1008.7 0.0
20/12:30am 22.2 17.2 6.4 36 8.1 NNE 22 28 12 15 1009.3 1009.1 0.0
20/12:00am 22.5 17.0 6.0 34 8.4 NNE 24 32 13 17 1009.6 1009.4 0.0
 
Date/Time
EDT
Temp
°C
App
Temp
°C
Dew
Point
°C
Rel
Hum
%
Delta-T
°C
Wind Press
QNH
hPa
Press
MSL
hPa
Rain since
9am
mm
Dir  Spd
km/h
Gust
km/h
Spd
kts
Gust
kts
19/11:30pm 21.9 17.3 6.7 37 7.8 NNE 20 33 11 18 1009.9 1009.7 0.0
19/11:00pm 22.0 18.1 7.2 38 7.7 NNE 17 24 9 13 1010.4 1010.2 0.0
19/10:30pm 21.8 18.0 7.6 40 7.4 NE 17 20 9 11 1010.6 1010.4 0.0
19/10:00pm 23.1 19.4 8.0 38 8.0 NE 17 26 9 14 1010.7 1010.5 0.0
19/09:30pm 23.6 20.3 8.0 36 8.3 NE 15 19 8 10 1010.7 1010.5 0.0
19/09:00pm 24.0 20.6 7.8 35 8.6 NE 15 20 8 11 1010.7 1010.5 0.0
19/08:30pm 24.9 21.4 7.3 32 9.3 NE 15 19 8 10 1010.9 1010.7 0.0
19/08:00pm 26.6 22.8 5.9 26 10.8 NE 15 26 8 14 1010.9 1010.7 0.0
19/07:30pm 26.9 23.1 5.8 26 11.0 NNE 15 19 8 10 1011.0 1010.8 0.0
19/07:00pm 27.7 23.6 6.0 25 11.4 N 17 20 9 11 1010.7 1010.5 0.0
19/06:30pm 28.6 24.6 4.9 22 12.3 N 15 20 8 11 1010.9 1010.7 0.0
19/06:00pm 28.3 23.6 5.9 24 11.8 NNE 20 28 11 15 1010.8 1010.6 0.0
19/05:30pm 29.0 24.4 5.6 22 12.3 N 19 28 10 15 1010.8 1010.6 0.0
19/05:00pm 29.8 24.2 5.2 21 12.9 NNE 24 41 13 22 1010.9 1010.7 0.0
19/04:30pm 29.3 25.0 5.2 21 12.6 NNW 17 35 9 19 1011.2 1011.0 0.0
19/04:00pm 29.0 24.1 5.3 22 12.4 NNW 20 37 11 20 1011.6 1011.4 0.0
19/03:30pm 29.3 24.2 6.2 23 12.3 N 22 41 12 22 1012.0 1011.8 0.0
19/03:00pm 29.6 24.5 5.8 22 12.6 NNE 22 37 12 20 1012.4 1012.2 0.0
19/02:30pm 29.6 23.4 6.1 22 12.5 NNE 28 39 15 21 1013.0 1012.8 0.0
19/02:00pm 28.8 21.8 6.1 23 12.0 N 32 48 17 26 1013.4 1013.2 0.0
19/01:58pm 28.9 22.5 6.9 25 11.8 N 30 48 16 26 1013.4 1013.2 0.0
19/01:30pm 28.9 22.0 7.2 25 11.7 NNE 33 46 18 25 1013.6 1013.4 0.0
19/01:00pm 27.8 21.1 7.3 27 11.0 N 32 43 17 23 1014.1 1013.9 0.0
19/12:30pm 25.8 17.7 7.1 30 9.9 NNE 39 57 21 31 1014.7 1014.5 0.0
19/12:23pm 26.5 18.5 7.4 29 10.2 N 39 57 21 31 1014.7 1014.5 0.0
19/12:00pm 25.9 19.1 7.5 31 9.8 N 33 48 18 26 1015.0 1014.8 0.0
19/11:30am 26.2 18.7 8.0 31 9.8 N 37 54 20 29 1015.6 1015.5 0.0
19/11:27am 25.9 18.7 7.5 31 9.8 N 35 54 19 29 1015.6 1015.5 0.0
19/11:00am 25.2 17.5 7.2 31 9.5 N 37 50 20 27 1015.9 1015.8 0.0
19/10:30am 25.0 17.7 7.4 32 9.3 NNE 35 48 19 26 1016.3 1016.2 0.0
19/10:20am 24.2 16.9 7.3 34 8.9 N 35 54 19 29 1016.5 1016.4 0.0
19/10:00am 23.2 15.8 6.8 34 8.5 N 35 48 19 26 1016.7 1016.6 0.0
19/09:30am 22.9 14.4 6.8 35 8.3 N 41 56 22 30 1017.1 1017.0 0.0
19/09:12am 22.0 14.2 6.5 36 7.9 N 37 56 20 30 1017.3 1017.2 0.0
19/09:00am 21.8 12.8 6.5 37 7.8 N 43 52 23 28 1017.3 1017.2 0.0
19/08:30am 21.0 12.8 6.7 39 7.3 N 39 56 21 30 1017.4 1017.3 0.0
19/08:23am 20.6 13.1 6.3 39 7.2 N 35 54 19 29 1017.3 1017.2 0.0
19/08:00am 20.1 11.9 6.7 41 6.8 N 39 52 21 28 1017.2 1017.1 0.0
19/07:30am 19.6 12.1 6.5 42 6.6 N 35 48 19 26 1017.1 1017.0 0.0
19/07:09am 19.1 10.9 6.5 43 6.3 N 39 57 21 31 1017.1 1017.0 0.0
19/07:00am 18.8 11.4 6.6 45 6.1 N 35 48 19 26 1016.9 1016.8 0.0
19/06:30am 17.8 10.7 6.5 47 5.6 N 33 44 18 24 1016.4 1016.3 0.0
19/06:18am 17.0 10.9 6.7 50 5.1 N 28 52 15 28 1016.5 1016.4 0.0
19/06:00am 16.1 10.5 7.0 54 4.5 N 26 30 14 16 1016.4 1016.3 0.0
19/05:30am 15.9 10.3 7.3 56 4.3 N 26 32 14 17 1016.1 1016.0 0.0
19/05:00am 16.3 11.5 7.3 55 4.5 N 22 30 12 16 1015.7 1015.6 0.0
19/04:30am 15.5 10.9 8.0 61 3.8 N 22 26 12 14 1015.5 1015.3 0.0
19/04:00am 13.1 9.1 8.3 72 2.4 N 19 20 10 11 1015.6 1015.5 0.0
19/03:30am 13.2 10.0 8.4 72 2.4 NNE 15 17 8 9 1015.8 1015.7 0.0
19/03:00am 12.2 9.0 8.6 78 1.8 N 15 15 8 8 1016.0 1015.9 0.0
19/02:30am 12.8 10.8 8.8 76 2.0 N 9 13 5 7 1016.2 1016.1 0.0
19/02:00am 14.1 11.2 8.1 67 3.0 N 13 15 7 8 1016.6 1016.5 0.0
19/01:30am 14.9 11.2 8.1 64 3.4 N 17 20 9 11 1017.0 1016.9 0.0
19/01:00am 15.0 12.8 7.8 62 3.6 NNW 9 13 5 7 1017.1 1017.0 0.0
19/12:30am 14.8 12.8 8.5 66 3.2 N 9 13 5 7 1017.3 1017.2 0.0
19/12:00am 15.9 13.0 8.2 60 3.9 N 13 15 7 8 1017.3 1017.2 0.0
 
Date/Time
EDT
Temp
°C
App
Temp
°C
Dew
Point
°C
Rel
Hum
%
Delta-T
°C
Wind Press
QNH
hPa
Press
MSL
hPa
Rain since
9am
mm
Dir  Spd
km/h
Gust
km/h
Spd
kts
Gust
kts
18/11:30pm 17.2 15.1 8.2 55 4.6 N 9 11 5 6 1017.5 1017.4 0.0
18/11:00pm 18.4 16.2 7.9 50 5.4 NNE 9 13 5 7 1017.8 1017.7 0.0
18/10:30pm 18.9 16.3 7.8 48 5.7 ENE 11 15 6 8 1017.8 1017.7 0.0
18/10:00pm 20.1 17.8 7.4 43 6.5 E 9 13 5 7 1017.7 1017.6 0.0
18/09:30pm 20.8 18.2 7.7 42 6.8 E 11 15 6 8 1017.5 1017.4 0.0
18/09:00pm 22.9 18.7 5.7 32 8.7 ESE 17 22 9 12 1017.3 1017.2 0.0
18/08:30pm 23.1 18.6 6.0 33 8.7 ESE 19 24 10 13 1017.2 1017.1 0.0
18/08:00pm 23.9 19.0 6.8 33 8.9 ESE 22 28 12 15 1017.0 1016.9 0.0
18/07:30pm 24.5 19.1 6.3 31 9.4 ESE 24 32 13 17 1017.0 1016.9 0.0
18/07:00pm 24.6 19.8 8.7 36 8.6 SSE 24 33 13 18 1017.0 1016.9 0.0
18/06:30pm 24.7 18.7 8.8 36 8.6 SSE 30 33 16 18 1016.9 1016.8 0.0
18/06:00pm 24.9 18.4 8.1 34 9.0 SSE 32 37 17 20 1017.0 1016.9 0.0
18/05:30pm 25.5 18.6 7.1 31 9.7 SSE 33 39 18 21 1017.2 1017.1 0.0
18/05:00pm 25.5 18.6 6.3 29 10.0 SSE 32 37 17 20 1017.3 1017.2 0.0
18/04:30pm 26.2 19.8 7.1 29 10.1 SSE 30 37 16 20 1017.3 1017.2 0.0
18/04:00pm 26.5 20.9 7.1 29 10.3 SSE 26 35 14 19 1017.5 1017.4 0.0
18/03:30pm 26.4 21.2 7.2 29 10.2 SSE 24 33 13 18 1017.9 1017.8 0.0
18/03:00pm 26.1 21.1 9.4 35 9.2 S 26 33 14 18 1018.5 1018.3 0.0
18/02:30pm 25.5 20.4 9.2 35 8.9 S 26 37 14 20 1019.0 1018.8 0.0
18/02:00pm 25.5 22.9 7.9 32 9.4 W 11 22 6 12 1019.4 1019.2 0.0
18/01:30pm 25.3 22.9 6.8 30 9.7 NNW 9 19 5 10 1019.8 1019.6 0.0
18/01:00pm 24.5 21.6 8.0 35 8.8 N 13 26 7 14 1020.2 1020.0 0.0
18/12:30pm 24.6 21.0 8.4 35 8.7 NNE 17 28 9 15 1020.5 1020.3 0.0
18/12:00pm 24.1 19.8 7.9 35 8.6 NNE 20 30 11 16 1020.9 1020.7 0.0
18/11:30am 23.4 19.8 8.4 38 8.0 NE 17 28 9 15 1021.3 1021.1 0.0
18/11:00am 21.3 18.6 8.9 45 6.6 NNE 13 26 7 14 1021.8 1021.6 0.0
18/10:30am 19.6 18.2 10.8 56 4.8 NE 9 15 5 8 1022.2 1022.0 0.0
18/10:00am 18.1 18.0 10.7 62 4.0 N 2 9 1 5 1022.5 1022.3 0.0
18/09:30am 16.4 15.1 10.1 66 3.3 NW 7 11 4 6 1022.7 1022.5 0.0
18/09:00am 15.6 14.7 10.7 72 2.6 SSW 6 11 3 6 1022.9 1022.8 0.0
18/08:30am 14.4 12.8 10.2 76 2.2 W 9 15 5 8 1023.0 1022.9 0.0
18/08:00am 13.9 11.6 10.3 79 1.9 WSW 13 17 7 9 1022.9 1022.8 0.0
18/07:30am 13.1 10.7 10.2 82 1.5 W 13 15 7 8 1022.7 1022.5 0.0
18/07:00am 12.0 9.7 10.3 89 0.9 W 13 15 7 8 1022.5 1022.3 0.0
18/06:30am 11.6 9.7 10.4 92 0.6 WNW 11 15 6 8 1022.2 1022.0 0.0
18/06:00am 10.4 8.3 9.6 95 0.4 W 11 13 6 7 1021.9 1021.7 0.0
18/05:30am 10.6 8.1 9.8 95 0.4 W 13 13 7 7 1021.7 1021.5 0.0
18/05:00am 10.2 8.0 9.4 95 0.4 W 11 13 6 7 1021.6 1021.4 0.0
18/04:30am 10.7 8.1 9.5 92 0.6 W 13 17 7 9 1021.7 1021.5 0.0
18/04:00am 9.8 7.1 8.8 93 0.5 WNW 13 17 7 9 1021.8 1021.6 0.0
18/03:54am 9.2 6.0 8.4 95 0.4 WNW 15 17 8 9 1021.8 1021.6 0.0
18/03:30am 8.1 5.1 7.5 96 0.3 W 13 13 7 7 1021.9 1021.7 0.0
18/03:00am 8.4 5.0 7.6 95 0.4 W 15 17 8 9 1022.1 1021.9 0.0
18/02:30am 8.5 5.0 7.4 93 0.5 W 15 17 8 9 1022.2 1022.0 0.0
18/02:00am 8.4 5.6 7.1 91 0.6 W 11 13 6 7 1022.6 1022.4 0.0
18/01:30am 9.2 6.2 7.5 89 0.8 W 13 13 7 7 1023.0 1022.9 0.0
18/01:00am 9.9 7.6 7.6 85 1.1 WSW 9 9 5 5 1023.4 1023.3 0.0
18/12:30am 10.4 8.6 7.9 84 1.2 SW 7 9 4 5 1023.6 1023.5 0.0
18/12:00am 10.5 7.9 7.6 82 1.4 SSW 11 13 6 7 1023.7 1023.6 0.0
 
Date/Time
EDT
Temp
°C
App
Temp
°C
Dew
Point
°C
Rel
Hum
%
Delta-T
°C
Wind Press
QNH
hPa
Press
MSL
hPa
Rain since
9am
mm
Dir  Spd
km/h
Gust
km/h
Spd
kts
Gust
kts
17/11:30pm 11.5 9.2 7.6 77 1.9 SSW 9 11 5 6 1024.1 1024.0 0.0
17/11:00pm 12.2 9.5 7.5 73 2.3 S 11 15 6 8 1024.4 1024.3 0.0
17/10:30pm 12.5 9.3 6.9 68 2.7 S 13 19 7 10 1024.5 1024.4 0.0
17/10:00pm 13.0 8.9 6.0 62 3.3 S 17 20 9 11 1024.6 1024.5 0.0
17/09:30pm 13.1 9.0 6.4 64 3.2 S 17 24 9 13 1024.6 1024.5 0.0
17/09:00pm 13.4 8.7 6.0 61 3.5 S 20 28 11 15 1024.1 1024.0 0.0
17/08:30pm 13.7 7.5 6.2 60 3.6 SSE 28 37 15 20 1023.9 1023.8 0.0
17/08:00pm 14.3 9.6 7.6 64 3.3 S 22 37 12 20 1024.0 1023.9 0.0
17/07:30pm 14.8 8.8 7.1 60 3.8 S 28 37 15 20 1023.8 1023.7 0.0
17/07:00pm 15.5 8.9 6.0 53 4.6 S 30 39 16 21 1023.6 1023.5 0.0

Latest Capital City Observations: Canberra | Sydney | Melbourne | Brisbane | Adelaide | Perth | Hobart | Darwin

Other Formats:

Comma delimited format used in spreadsheet applications
http://www.bom.gov.au/fwo/IDV60901/IDV60901.94866.axf

JavaScript Object Notation format (JSON) in row-major order
http://www.bom.gov.au/fwo/IDV60901/IDV60901.94866.json